createdAt,value
2022-10-07T00:00:10.985Z,93055.88
2022-10-07T00:02:43.422Z,93059.00
2022-10-07T00:05:17.002Z,93060.31
2022-10-07T00:07:49.328Z,93059.50
2022-10-07T00:10:21.586Z,93052.75
2022-10-07T00:12:53.981Z,93057.94
2022-10-07T00:15:26.698Z,93060.00
2022-10-07T00:17:59.001Z,93058.22
2022-10-07T00:20:36.932Z,93059.03
2022-10-07T00:23:09.229Z,93055.88
2022-10-07T00:25:41.548Z,93053.53
2022-10-07T00:28:13.905Z,93051.97
2022-10-07T00:30:46.239Z,93043.88
2022-10-07T00:33:18.585Z,93043.38
2022-10-07T00:35:51.625Z,93049.13
2022-10-07T00:38:23.947Z,93038.22
2022-10-07T00:40:56.288Z,93039.00
2022-10-07T00:43:30.567Z,93042.41
2022-10-07T00:46:07.696Z,93033.81
2022-10-07T00:48:41.037Z,93042.41
2022-10-07T00:51:16.416Z,93034.84
2022-10-07T00:53:52.251Z,93029.91
2022-10-07T00:56:27.117Z,93025.47
2022-10-07T00:58:59.630Z,93024.47
2022-10-07T01:01:34.724Z,93021.59
2022-10-07T01:04:11.986Z,93020.56
2022-10-07T01:06:45.114Z,93027.84
2022-10-07T01:09:20.759Z,93016.13
2022-10-07T01:11:59.862Z,93020.03
2022-10-07T01:14:45.835Z,93019.25
2022-10-07T01:17:22.980Z,93014.06
2022-10-07T01:20:28.998Z,93006.78
2022-10-07T01:23:19.104Z,93005.53
2022-10-07T01:26:03.652Z,93013.59
2022-10-07T01:28:41.610Z,93008.66
2022-10-07T01:31:17.455Z,93007.91
2022-10-07T01:33:54.371Z,93008.41
2022-10-07T01:36:28.686Z,93000.09
2022-10-07T01:39:07.695Z,93005.06
2022-10-07T01:41:40.955Z,93010.00
2022-10-07T01:44:14.071Z,93003.50
2022-10-07T01:46:47.113Z,93001.94
2022-10-07T01:49:19.434Z,93005.34
2022-10-07T01:52:08.146Z,92997.28
2022-10-07T01:54:50.490Z,92990.22
2022-10-07T01:57:32.202Z,92989.47
2022-10-07T02:00:11.047Z,92987.94
2022-10-07T02:03:17.090Z,92985.34
2022-10-07T02:05:59.950Z,92987.94
2022-10-07T02:08:36.975Z,92978.31
2022-10-07T02:11:15.406Z,92981.19
2022-10-07T02:14:00.299Z,92978.09
2022-10-07T02:16:41.764Z,92984.06
2022-10-07T02:19:17.987Z,92988.50
2022-10-07T02:21:53.015Z,92984.06
2022-10-07T02:24:29.315Z,92988.78
2022-10-07T02:27:07.851Z,92989.56
2022-10-07T02:29:42.711Z,92995.28
2022-10-07T02:32:20.220Z,92989.03
2022-10-07T02:35:18.926Z,92992.94
2022-10-07T02:37:55.550Z,92999.44
2022-10-07T02:40:33.704Z,92996.34
2022-10-07T02:43:11.602Z,92990.09
2022-10-07T02:45:47.992Z,92998.69
2022-10-07T02:48:26.423Z,92994.25
2022-10-07T02:51:03.631Z,92993.50
2022-10-07T02:53:38.113Z,92996.59
2022-10-07T02:56:11.792Z,92997.91
2022-10-07T02:58:46.027Z,93006.25
2022-10-07T03:01:24.840Z,93003.63
2022-10-07T03:03:58.418Z,93011.72
2022-10-07T03:06:30.854Z,93009.09
2022-10-07T03:09:06.316Z,93016.66
2022-10-07T03:11:39.238Z,93010.69
2022-10-07T03:14:12.094Z,93009.91
2022-10-07T03:16:44.551Z,93007.28
2022-10-07T03:19:17.667Z,93009.63
2022-10-07T03:22:01.693Z,93009.88
2022-10-07T03:24:36.249Z,93012.25
2022-10-07T03:27:08.710Z,93018.50
2022-10-07T03:29:43.241Z,93008.59
2022-10-07T03:32:16.304Z,93006.50
2022-10-07T03:34:49.303Z,93010.16
2022-10-07T03:37:21.877Z,93013.00
2022-10-07T03:39:54.285Z,93007.03
2022-10-07T03:42:27.188Z,93005.72
2022-10-07T03:44:59.518Z,93014.28
2022-10-07T03:47:32.516Z,93008.28
2022-10-07T03:50:06.529Z,93013.25
2022-10-07T03:52:38.839Z,93014.56
2022-10-07T03:55:11.326Z,93011.94
2022-10-07T03:57:57.071Z,93003.59
2022-10-07T04:00:32.394Z,93003.34
2022-10-07T04:03:06.973Z,93007.47
2022-10-07T04:05:40.063Z,92998.63
2022-10-07T04:08:17.230Z,93009.34
2022-10-07T04:10:50.009Z,93008.53
2022-10-07T04:13:22.503Z,93011.91
2022-10-07T04:15:55.820Z,93008.25
2022-10-07T04:18:28.994Z,93011.91
2022-10-07T04:21:02.087Z,93012.94
2022-10-07T04:23:37.363Z,93008.50
2022-10-07T04:26:11.276Z,93006.91
2022-10-07T04:28:48.406Z,93003.81
2022-10-07T04:31:24.380Z,93003.56
2022-10-07T04:34:10.034Z,93002.53
2022-10-07T04:36:47.123Z,93000.72
2022-10-07T04:39:33.213Z,92994.97
2022-10-07T04:42:29.547Z,92994.19
2022-10-07T04:45:09.416Z,92989.28
2022-10-07T04:47:44.951Z,92991.59
2022-10-07T04:50:17.927Z,92992.13
2022-10-07T04:52:54.128Z,92988.50
2022-10-07T04:55:27.515Z,92989.28
2022-10-07T04:58:00.223Z,92991.38
2022-10-07T05:00:33.054Z,92991.13
2022-10-07T05:03:05.460Z,92988.78
2022-10-07T05:05:41.423Z,92993.97
2022-10-07T05:08:15.963Z,92998.41
2022-10-07T05:10:48.414Z,93005.72
2022-10-07T05:13:21.749Z,93007.50
2022-10-07T05:15:56.145Z,93003.88
2022-10-07T05:18:30.478Z,93011.97
2022-10-07T05:21:08.054Z,93014.03
2022-10-07T05:23:45.182Z,93026.03
2022-10-07T05:26:22.045Z,93029.41
2022-10-07T05:29:00.118Z,93028.88
2022-10-07T05:31:40.632Z,93038.25
2022-10-07T05:34:13.375Z,93033.81
2022-10-07T05:36:46.314Z,93044.47
2022-10-07T05:39:19.582Z,93044.22
2022-10-07T05:41:58.300Z,93037.97
2022-10-07T05:44:37.108Z,93041.38
2022-10-07T05:47:10.899Z,93042.13
2022-10-07T05:49:43.346Z,93039.28
2022-10-07T05:52:15.993Z,93037.19
2022-10-07T05:54:51.175Z,93042.66
2022-10-07T05:57:24.101Z,93040.03
2022-10-07T05:59:58.190Z,93046.00
2022-10-07T06:02:30.921Z,93043.91
2022-10-07T06:05:04.251Z,93050.38
2022-10-07T06:07:37.086Z,93047.00
2022-10-07T06:10:29.282Z,93050.88
2022-10-07T06:13:07.394Z,93051.09
2022-10-07T06:15:40.239Z,93053.66
2022-10-07T06:18:13.367Z,93056.25
2022-10-07T06:20:53.364Z,93053.34
2022-10-07T06:23:26.587Z,93057.50
2022-10-07T06:26:01.647Z,93051.22
2022-10-07T06:28:36.810Z,93049.59
2022-10-07T06:31:11.365Z,93056.56
2022-10-07T06:33:43.862Z,93067.75
2022-10-07T06:36:16.851Z,93067.22
2022-10-07T06:38:53.070Z,93061.41
2022-10-07T06:41:30.409Z,93065.78
2022-10-07T06:44:27.571Z,93064.47
2022-10-07T06:47:01.874Z,93073.34
2022-10-07T06:49:34.197Z,93072.47
2022-10-07T06:52:06.638Z,93077.34
2022-10-07T06:54:39.011Z,93076.94
2022-10-07T06:57:40.360Z,93082.00
2022-10-07T07:00:05.442Z,93079.75
2022-10-07T07:02:38.872Z,93081.94
2022-10-07T07:05:14.947Z,93088.91
2022-10-07T07:07:49.348Z,93081.34
2022-10-07T07:10:22.318Z,93086.22
2022-10-07T07:12:57.841Z,93083.16
2022-10-07T07:15:30.686Z,93089.31
2022-10-07T07:18:05.109Z,93092.22
2022-10-07T07:20:38.674Z,93086.50
2022-10-07T07:23:10.974Z,93093.09
2022-10-07T07:25:45.154Z,93091.03
2022-10-07T07:28:18.743Z,93083.25
2022-10-07T07:30:51.215Z,93088.69
2022-10-07T07:33:23.993Z,93082.22
2022-10-07T07:35:56.857Z,93080.78
2022-10-07T07:38:29.236Z,93072.97
2022-10-07T07:41:04.535Z,93065.31
2022-10-07T07:43:37.515Z,93084.31
2022-10-07T07:46:11.905Z,93081.38
2022-10-07T07:48:44.882Z,93083.16
2022-10-07T07:51:18.310Z,93090.03
2022-10-07T07:53:51.590Z,93079.66
2022-10-07T07:56:25.094Z,93080.53
2022-10-07T07:58:58.331Z,93073.44
2022-10-07T08:01:31.213Z,93074.38
2022-10-07T08:04:04.127Z,93070.25
2022-10-07T08:06:39.672Z,93075.38
2022-10-07T08:09:12.466Z,93056.25
2022-10-07T08:11:46.690Z,93061.88
2022-10-07T08:14:22.790Z,93051.47
2022-10-07T08:16:58.470Z,93046.44
2022-10-07T08:19:31.582Z,93044.13
2022-10-07T08:22:06.432Z,93045.75
2022-10-07T08:24:39.926Z,93044.66
2022-10-07T08:27:12.482Z,93041.72
2022-10-07T08:29:46.026Z,93043.47
2022-10-07T08:32:18.443Z,93034.22
2022-10-07T08:34:50.765Z,93037.19
2022-10-07T08:37:23.104Z,93030.88
2022-10-07T08:39:55.387Z,93031.72
2022-10-07T08:42:34.241Z,93024.69
2022-10-07T08:45:15.593Z,93029.41
2022-10-07T08:47:50.857Z,93024.19
2022-10-07T08:50:30.258Z,93021.53
2022-10-07T08:53:07.753Z,93021.41
2022-10-07T08:55:44.700Z,93016.78
2022-10-07T08:58:39.448Z,93018.63
2022-10-07T09:01:23.727Z,93017.06
2022-10-07T09:04:05.961Z,93013.50
2022-10-07T09:06:41.874Z,93003.31
2022-10-07T09:09:19.432Z,93010.88
2022-10-07T09:11:55.155Z,93004.53
2022-10-07T09:14:29.144Z,93003.91
2022-10-07T09:17:10.038Z,92999.44
2022-10-07T09:19:46.547Z,92993.34
2022-10-07T09:22:22.159Z,92997.25
2022-10-07T09:25:09.025Z,92992.13
2022-10-07T09:27:44.116Z,92998.00
2022-10-07T09:30:17.255Z,93003.28
2022-10-07T09:32:53.628Z,93007.34
2022-10-07T09:35:30.860Z,92986.13
2022-10-07T09:38:08.564Z,93000.84
2022-10-07T09:40:58.498Z,92997.97
2022-10-07T09:43:32.192Z,92993.66
2022-10-07T09:46:04.732Z,92981.44
2022-10-07T09:48:52.071Z,92988.91
2022-10-07T09:51:26.401Z,92992.69
2022-10-07T09:54:02.075Z,92975.56
2022-10-07T09:56:40.594Z,92981.88
2022-10-07T09:59:21.993Z,92977.34
2022-10-07T10:01:56.475Z,92980.91
2022-10-07T10:04:32.773Z,92984.69
2022-10-07T10:07:15.713Z,92976.06
2022-10-07T10:09:49.611Z,92976.78
2022-10-07T10:12:24.115Z,92971.63
2022-10-07T10:14:59.428Z,92971.50
2022-10-07T10:17:38.753Z,92973.16
2022-10-07T10:20:35.367Z,92975.38
2022-10-07T10:23:26.416Z,92966.91
2022-10-07T10:26:28.192Z,92964.16
2022-10-07T10:29:17.107Z,92963.25
2022-10-07T10:32:09.098Z,92957.50
2022-10-07T10:34:50.129Z,92957.41
2022-10-07T10:37:27.719Z,92952.88
2022-10-07T10:40:07.423Z,92962.06
2022-10-07T10:42:48.399Z,92950.78
2022-10-07T10:45:34.517Z,92957.16
2022-10-07T10:48:23.911Z,92950.31
2022-10-07T10:51:05.875Z,92941.94
2022-10-07T10:53:50.696Z,92944.06
2022-10-07T10:56:36.123Z,92936.78
2022-10-07T10:59:26.209Z,92939.34
2022-10-07T11:02:17.587Z,92928.53
2022-10-07T11:04:54.628Z,92935.88
2022-10-07T11:07:32.740Z,92926.44
2022-10-07T11:10:17.862Z,92922.34
2022-10-07T11:12:56.162Z,92912.09
2022-10-07T11:15:33.069Z,92922.34
2022-10-07T11:18:11.594Z,92901.06
2022-10-07T11:20:47.491Z,92908.47
2022-10-07T11:23:25.051Z,92911.75
2022-10-07T11:26:02.751Z,92901.06
2022-10-07T11:28:39.546Z,92910.00
2022-10-07T11:31:21.027Z,92900.09
2022-10-07T11:34:06.656Z,92898.53
2022-10-07T11:36:45.167Z,92888.88
2022-10-07T11:39:17.770Z,92894.44
2022-10-07T11:41:56.262Z,92886.94
2022-10-07T11:44:32.733Z,92884.72
2022-10-07T11:47:10.503Z,92879.50
2022-10-07T11:49:55.195Z,92885.91
2022-10-07T11:52:30.599Z,92879.91
2022-10-07T11:55:06.514Z,92883.66
2022-10-07T11:57:42.560Z,92878.09
2022-10-07T12:00:24.717Z,92886.44
2022-10-07T12:02:57.200Z,92875.22
2022-10-07T12:06:11.438Z,92879.78
2022-10-07T12:08:44.710Z,92867.97
2022-10-07T12:11:46.153Z,92878.91
2022-10-07T12:14:40.183Z,92873.16
2022-10-07T12:17:22.491Z,92880.00
2022-10-07T12:20:32.048Z,92869.09
2022-10-07T12:23:35.735Z,92864.50
2022-10-07T12:26:47.916Z,92868.44
2022-10-07T12:29:39.532Z,92864.72
2022-10-07T12:32:41.893Z,92864.13
2022-10-07T12:35:40.451Z,92864.38
2022-10-07T12:38:16.905Z,92868.22
2022-10-07T12:40:59.379Z,92865.88
2022-10-07T12:43:45.546Z,92860.41
2022-10-07T12:46:21.224Z,92862.88
2022-10-07T12:49:00.392Z,92849.31
2022-10-07T12:51:38.031Z,92844.47
2022-10-07T12:54:17.558Z,92845.75
2022-10-07T12:56:50.291Z,92845.28
2022-10-07T12:59:53.239Z,92846.13
2022-10-07T13:03:22.435Z,92843.84
2022-10-07T13:06:28.855Z,92843.66
2022-10-07T13:09:26.629Z,92841.66
2022-10-07T13:12:16.987Z,92833.09
2022-10-07T13:14:59.418Z,92826.56
2022-10-07T13:17:41.042Z,92832.63
2022-10-07T13:20:32.154Z,92827.91
2022-10-07T13:23:11.619Z,92837.28
2022-10-07T13:25:45.269Z,92826.22
2022-10-07T13:28:21.623Z,92830.22
2022-10-07T13:30:54.061Z,92829.34
2022-10-07T13:33:29.566Z,92833.59
2022-10-07T13:36:20.125Z,92827.44
2022-10-07T13:39:10.395Z,92825.38
2022-10-07T13:41:45.077Z,92820.19
2022-10-07T13:44:19.722Z,92816.53
2022-10-07T13:46:57.248Z,92813.25
2022-10-07T13:49:34.619Z,92820.28
2022-10-07T13:52:18.343Z,92820.28
2022-10-07T13:54:52.471Z,92816.13
2022-10-07T13:57:28.502Z,92812.66
2022-10-07T14:00:01.065Z,92818.94
2022-10-07T14:02:39.244Z,92818.50
2022-10-07T14:05:19.961Z,92809.72
2022-10-07T14:07:53.831Z,92804.09
2022-10-07T14:10:29.421Z,92792.31
2022-10-07T14:13:09.011Z,92790.53
2022-10-07T14:15:47.336Z,92794.81
2022-10-07T14:18:19.858Z,92798.34
2022-10-07T14:20:54.460Z,92789.91
2022-10-07T14:23:30.381Z,92792.81
2022-10-07T14:26:05.579Z,92797.19
2022-10-07T14:28:39.464Z,92802.47
2022-10-07T14:31:37.123Z,92801.50
2022-10-07T14:34:31.462Z,92811.41
2022-10-07T14:37:05.502Z,92808.47
2022-10-07T14:39:39.354Z,92813.81
2022-10-07T14:42:15.337Z,92814.06
2022-10-07T14:44:48.794Z,92811.91
2022-10-07T14:47:23.764Z,92793.69
2022-10-07T14:49:58.741Z,92812.66
2022-10-07T14:52:35.253Z,92804.56
2022-10-07T14:55:12.919Z,92808.56
2022-10-07T14:57:47.426Z,92809.53
2022-10-07T15:00:22.091Z,92814.94
2022-10-07T15:02:54.392Z,92819.13
2022-10-07T15:05:26.829Z,92825.53
2022-10-07T15:07:59.528Z,92814.88
2022-10-07T15:10:32.670Z,92818.97
2022-10-07T15:13:08.611Z,92816.88
2022-10-07T15:15:45.343Z,92815.13
2022-10-07T15:18:17.688Z,92813.66
2022-10-07T15:20:55.715Z,92821.41
2022-10-07T15:23:29.436Z,92823.16
2022-10-07T15:26:01.808Z,92824.72
2022-10-07T15:28:34.865Z,92816.25
2022-10-07T15:31:09.434Z,92816.84
2022-10-07T15:33:41.979Z,92822.53
2022-10-07T15:36:14.999Z,92819.00
2022-10-07T15:38:47.294Z,92820.97
2022-10-07T15:41:33.167Z,92826.38
2022-10-07T15:44:12.011Z,92825.91
2022-10-07T15:46:45.525Z,92826.81
2022-10-07T15:49:17.836Z,92817.19
2022-10-07T15:51:50.575Z,92801.75
2022-10-07T15:54:24.380Z,92827.56
2022-10-07T15:56:56.710Z,92830.03
2022-10-07T15:59:29.680Z,92821.16
2022-10-07T16:02:03.024Z,92828.88
2022-10-07T16:04:35.328Z,92826.41
2022-10-07T16:07:10.551Z,92832.88
2022-10-07T16:09:42.863Z,92833.31
2022-10-07T16:12:15.205Z,92829.19
2022-10-07T16:14:48.386Z,92828.44
2022-10-07T16:17:21.263Z,92824.53
2022-10-07T16:19:53.543Z,92825.69
2022-10-07T16:22:25.862Z,92821.91
2022-10-07T16:24:58.177Z,92822.91
2022-10-07T16:27:45.271Z,92821.00
2022-10-07T16:30:36.433Z,92828.06
2022-10-07T16:33:08.798Z,92827.78
2022-10-07T16:35:41.563Z,92835.78
2022-10-07T16:38:14.513Z,92829.63
2022-10-07T16:40:53.960Z,92835.72
2022-10-07T16:43:26.452Z,92838.34
2022-10-07T16:46:01.950Z,92834.19
2022-10-07T16:48:38.577Z,92838.88
2022-10-07T16:51:11.830Z,92839.13
2022-10-07T16:53:45.980Z,92835.94
2022-10-07T16:56:20.240Z,92837.38
2022-10-07T16:58:55.421Z,92829.69
2022-10-07T17:01:29.472Z,92835.03
2022-10-07T17:04:01.914Z,92833.88
2022-10-07T17:06:34.687Z,92836.22
2022-10-07T17:09:07.072Z,92830.09
2022-10-07T17:11:40.031Z,92819.72
2022-10-07T17:14:15.577Z,92832.06
2022-10-07T17:16:49.919Z,92834.97
2022-10-07T17:19:24.103Z,92833.41
2022-10-07T17:21:58.532Z,92830.91
2022-10-07T17:24:30.935Z,92843.00
2022-10-07T17:27:03.419Z,92842.53
2022-10-07T17:29:37.707Z,92846.28
2022-10-07T17:32:10.722Z,92851.34
2022-10-07T17:34:45.464Z,92844.47
2022-10-07T17:37:17.990Z,92842.13
2022-10-07T17:39:50.599Z,92846.78
2022-10-07T17:42:23.020Z,92844.56
2022-10-07T17:44:55.339Z,92846.78
2022-10-07T17:47:28.365Z,92843.63
2022-10-07T17:50:00.688Z,92850.31
2022-10-07T17:52:32.970Z,92855.16
2022-10-07T17:55:06.768Z,92847.28
2022-10-07T17:57:39.470Z,92853.19
2022-10-07T18:00:12.621Z,92858.75
2022-10-07T18:02:49.484Z,92849.44
2022-10-07T18:05:21.833Z,92844.97
2022-10-07T18:07:54.255Z,92855.50
2022-10-07T18:10:26.680Z,92862.63
2022-10-07T18:13:19.119Z,92860.69
2022-10-07T18:15:57.400Z,92868.03
2022-10-07T18:18:31.105Z,92865.41
2022-10-07T18:21:04.264Z,92866.47
2022-10-07T18:23:37.651Z,92863.63
2022-10-07T18:26:12.786Z,92873.09
2022-10-07T18:28:46.000Z,92872.50
2022-10-07T18:31:18.888Z,92876.41
2022-10-07T18:33:51.934Z,92869.13
2022-10-07T18:36:24.347Z,92871.66
2022-10-07T18:38:57.107Z,92870.28
2022-10-07T18:41:29.577Z,92863.59
2022-10-07T18:44:01.894Z,92857.78
2022-10-07T18:46:34.257Z,92860.22
2022-10-07T18:49:08.662Z,92852.81
2022-10-07T18:51:41.230Z,92859.09
2022-10-07T18:54:13.763Z,92856.25
2022-10-07T18:56:46.395Z,92858.81
2022-10-07T18:59:19.570Z,92857.78
2022-10-07T19:01:52.008Z,92856.56
2022-10-07T19:04:25.218Z,92865.97
2022-10-07T19:06:57.595Z,92861.00
2022-10-07T19:09:32.875Z,92860.19
2022-10-07T19:12:25.990Z,92858.31
2022-10-07T19:14:57.972Z,92863.47
2022-10-07T19:17:31.713Z,92865.22
2022-10-07T19:20:05.436Z,92865.75
2022-10-07T19:22:37.767Z,92865.03
2022-10-07T19:25:28.291Z,92862.13
2022-10-07T19:28:00.791Z,92865.47
2022-10-07T19:30:33.175Z,92864.28
2022-10-07T19:33:05.560Z,92859.66
2022-10-07T19:35:38.882Z,92859.88
2022-10-07T19:38:11.728Z,92861.41
2022-10-07T19:40:44.403Z,92860.94
2022-10-07T19:43:16.966Z,92856.06
2022-10-07T19:45:50.547Z,92860.03
2022-10-07T19:48:22.928Z,92846.19
2022-10-07T19:50:59.786Z,92856.16
2022-10-07T19:53:33.434Z,92853.16
2022-10-07T19:56:11.991Z,92852.22
2022-10-07T19:58:47.091Z,92845.44
2022-10-07T20:01:21.443Z,92848.16
2022-10-07T20:03:56.690Z,92842.16
2022-10-07T20:06:29.879Z,92848.88
2022-10-07T20:09:03.530Z,92837.94
2022-10-07T20:11:35.941Z,92836.84
2022-10-07T20:14:09.350Z,92849.22
2022-10-07T20:16:42.310Z,92848.00
2022-10-07T20:19:17.850Z,92846.44
2022-10-07T20:21:50.813Z,92845.09
2022-10-07T20:24:23.140Z,92840.09
2022-10-07T20:26:55.440Z,92839.66
2022-10-07T20:29:27.780Z,92835.78
2022-10-07T20:32:00.162Z,92831.50
2022-10-07T20:34:32.670Z,92832.25
2022-10-07T20:37:05.648Z,92834.59
2022-10-07T20:39:58.390Z,92818.09
2022-10-07T20:42:32.341Z,92826.97
2022-10-07T20:45:05.668Z,92823.19
2022-10-07T20:47:38.026Z,92825.94
2022-10-07T20:50:11.047Z,92820.56
2022-10-07T20:52:44.840Z,92816.88
2022-10-07T20:55:17.441Z,92819.19
2022-10-07T20:57:50.506Z,92811.19
2022-10-07T21:00:22.855Z,92814.00
2022-10-07T21:02:55.307Z,92815.63
2022-10-07T21:05:28.698Z,92817.22
2022-10-07T21:08:01.692Z,92813.53
2022-10-07T21:10:34.019Z,92809.59
2022-10-07T21:13:06.382Z,92820.03
2022-10-07T21:15:38.774Z,92806.38
2022-10-07T21:18:11.074Z,92812.75
2022-10-07T21:20:55.534Z,92827.03
2022-10-07T21:23:30.305Z,92815.28
2022-10-07T21:26:03.318Z,92823.13
2022-10-07T21:28:39.125Z,92821.53
2022-10-07T21:31:16.610Z,92826.63
2022-10-07T21:33:50.008Z,92816.19
2022-10-07T21:36:23.540Z,92828.72
2022-10-07T21:38:58.270Z,92824.31
2022-10-07T21:41:33.578Z,92820.09
2022-10-07T21:44:09.179Z,92828.44
2022-10-07T21:46:43.173Z,92820.50
2022-10-07T21:49:16.394Z,92813.34
2022-10-07T21:51:48.709Z,92803.34
2022-10-07T21:54:21.685Z,92805.22
2022-10-07T21:56:54.049Z,92801.94
2022-10-07T21:59:26.359Z,92795.56
2022-10-07T22:01:58.685Z,92782.19
2022-10-07T22:04:31.068Z,92789.13
2022-10-07T22:07:21.658Z,92792.91
2022-10-07T22:09:54.611Z,92787.22
2022-10-07T22:12:26.963Z,92794.47
2022-10-07T22:14:59.605Z,92794.66
2022-10-07T22:17:34.058Z,92789.19
2022-10-07T22:20:08.808Z,92797.06
2022-10-07T22:22:41.600Z,92796.38
2022-10-07T22:25:14.719Z,92790.94
2022-10-07T22:27:48.071Z,92787.09
2022-10-07T22:30:20.846Z,92786.00
2022-10-07T22:32:53.298Z,92784.38
2022-10-07T22:35:29.613Z,92780.03
2022-10-07T22:38:02.056Z,92770.97
2022-10-07T22:40:37.579Z,92771.66
2022-10-07T22:43:09.943Z,92769.06
2022-10-07T22:45:42.621Z,92763.22
2022-10-07T22:48:15.298Z,92758.28
2022-10-07T22:50:47.642Z,92757.31
2022-10-07T22:53:20.227Z,92749.97
2022-10-07T22:55:53.166Z,92747.69
2022-10-07T22:58:25.488Z,92749.00
2022-10-07T23:01:02.688Z,92752.50
2022-10-07T23:03:37.711Z,92765.25
2022-10-07T23:06:12.269Z,92757.16
2022-10-07T23:08:46.128Z,92754.50
2022-10-07T23:11:21.506Z,92761.47
2022-10-07T23:13:54.724Z,92759.03
2022-10-07T23:16:29.744Z,92753.28
2022-10-07T23:19:02.226Z,92752.06
2022-10-07T23:21:34.579Z,92746.00
2022-10-07T23:24:09.132Z,92743.91
2022-10-07T23:26:43.076Z,92748.97
2022-10-07T23:29:15.602Z,92741.69
2022-10-07T23:31:48.435Z,92752.41
2022-10-07T23:34:20.813Z,92752.16
2022-10-07T23:36:54.568Z,92733.81
2022-10-07T23:39:27.093Z,92739.00
2022-10-07T23:42:00.086Z,92733.50
2022-10-07T23:44:32.451Z,92738.63
2022-10-07T23:47:05.375Z,92736.59
2022-10-07T23:49:37.805Z,92736.81
2022-10-07T23:52:10.110Z,92733.03
2022-10-07T23:54:42.443Z,92735.03
2022-10-07T23:57:15.443Z,92737.59
2022-10-07T23:59:47.760Z,92732.06
